Terminal Aerodrome Forecast
Issued by NWS Tampa Bay Area, FL

Home | Current Version | Previous Version | Text Only | Print | Product List | Glossary Off
Versions: 1 2 3 4 5 6 7 8 9 10 11 12 13 14 15 16 17 18 19 20 21 22 23 24 25 26 27 28

000
FTUS42 KTBW 252100 AAA
TAFTPA
TAF AMD
KTPA 252104Z 2521/2618 24006KT P6SM VCTS SCT025CB SCT200
     FM252300 26005KT P6SM SCT200
     FM260600 00000KT P6SM SCT200
     FM261300 24004KT P6SM VCTS SCT035CB SCT250=

USA.gov is the U.S. government's official web portal to all federal, state and local government web resources and services.